Time;durP1;ratioP1;P1;durP2;ratioP2;P2;SDS_P1;SDS_P2;PMS_P1;PMS_P2;Temp;Humidity;BMP_temperature;BMP_pressure;BME280_temperature;BME280_humidity;BME280_pressure;Samples;Min_cycle;Max_cycle;Signal;HPM_P1;HPM_P2
2021/07/30 00:01:11;;;;;;;7.53;6.78;;;;;;;;;;4982017;28;20312;-62
2021/07/30 00:03:36;;;;;;;10.13;7.88;;;;;;;;;;4982431;28;20031;-62
2021/07/30 00:06:01;;;;;;;7.35;6.65;;;;;;;;;;4982767;28;20303;-62
2021/07/30 00:08:26;;;;;;;7.53;6.65;;;;;;;;;;4979844;28;20014;-63
2021/07/30 00:10:55;;;;;;;8.50;7.40;;;;;;;;;;4979331;28;20487;-63
2021/07/30 00:13:20;;;;;;;9.07;8.18;;;;;;;;;;4977990;28;20023;-62
2021/07/30 00:15:46;;;;;;;9.38;8.55;;;;;;;;;;4980020;28;20018;-63
2021/07/30 00:18:11;;;;;;;7.68;7.07;;;;;;;;;;4980127;28;20031;-62
2021/07/30 00:20:36;;;;;;;9.15;6.50;;;;;;;;;;4978969;28;20034;-62
2021/07/30 00:23:02;;;;;;;6.47;5.90;;;;;;;;;;4980043;28;20030;-62
2021/07/30 00:25:27;;;;;;;7.65;6.95;;;;;;;;;;4981423;28;20030;-62
2021/07/30 00:27:52;;;;;;;7.57;6.88;;;;;;;;;;4979117;28;20015;-62
2021/07/30 00:30:17;;;;;;;7.13;6.43;;;;;;;;;;4979063;28;20435;-62
2021/07/30 00:32:43;;;;;;;7.30;6.60;;;;;;;;;;4980478;28;20022;-62
2021/07/30 00:35:08;;;;;;;6.43;5.82;;;;;;;;;;4980860;28;20025;-62
2021/07/30 00:37:37;;;;;;;7.00;6.40;;;;;;;;;;4977783;28;20027;-62
2021/07/30 00:40:02;;;;;;;7.40;6.65;;;;;;;;;;4980887;28;20102;-62
2021/07/30 00:42:31;;;;;;;7.93;7.22;;;;;;;;;;4980429;28;20042;-62
2021/07/30 00:44:56;;;;;;;7.95;6.32;;;;;;;;;;4980419;28;20145;-62
2021/07/30 00:47:22;;;;;;;6.97;6.38;;;;;;;;;;4972726;28;20251;-62
2021/07/30 00:49:47;;;;;;;6.70;6.13;;;;;;;;;;4962491;28;20401;-62
2021/07/30 00:52:12;;;;;;;7.43;6.55;;;;;;;;;;4979654;28;20260;-62
2021/07/30 00:54:37;;;;;;;8.02;7.28;;;;;;;;;;4979442;28;20032;-62
2021/07/30 00:57:03;;;;;;;7.20;6.43;;;;;;;;;;4981158;28;20023;-62
2021/07/30 00:59:28;;;;;;;7.47;6.68;;;;;;;;;;4979326;28;20051;-62
2021/07/30 01:01:53;;;;;;;6.97;6.38;;;;;;;;;;4980606;28;20023;-62
2021/07/30 01:04:19;;;;;;;8.10;6.85;;;;;;;;;;4978173;28;20368;-62
2021/07/30 01:06:44;;;;;;;7.40;6.70;;;;;;;;;;4980072;28;20030;-62
2021/07/30 01:09:09;;;;;;;6.80;6.03;;;;;;;;;;4979900;28;20023;-62
2021/07/30 01:11:35;;;;;;;7.78;6.40;;;;;;;;;;4980689;28;20033;-62
2021/07/30 01:14:00;;;;;;;7.97;7.28;;;;;;;;;;4979039;28;20198;-62
2021/07/30 01:16:25;;;;;;;8.20;7.20;;;;;;;;;;4981908;28;20379;-62
2021/07/30 01:18:51;;;;;;;7.18;6.63;;;;;;;;;;4980304;28;20022;-62
2021/07/30 01:21:28;;;;;;;7.63;6.93;;;;;;;;;;4977974;28;20377;-62
2021/07/30 01:23:54;;;;;;;7.43;6.63;;;;;;;;;;4980823;28;20037;-62
2021/07/30 01:26:20;;;;;;;7.60;6.80;;;;;;;;;;4979001;28;20027;-62
2021/07/30 01:28:45;;;;;;;6.95;6.18;;;;;;;;;;4979236;28;20399;-62
2021/07/30 01:31:10;;;;;;;6.95;6.35;;;;;;;;;;4979746;28;20035;-62
2021/07/30 01:33:36;;;;;;;7.03;6.28;;;;;;;;;;4979932;28;20023;-62
2021/07/30 01:36:01;;;;;;;7.45;6.70;;;;;;;;;;4979130;28;20050;-63
2021/07/30 01:38:26;;;;;;;8.40;7.70;;;;;;;;;;4982250;28;20057;-62
2021/07/30 01:40:51;;;;;;;8.13;6.60;;;;;;;;;;4978204;28;20364;-62
2021/07/30 01:43:17;;;;;;;7.35;6.75;;;;;;;;;;4980378;28;20022;-62
2021/07/30 01:45:42;;;;;;;7.18;6.47;;;;;;;;;;4979610;28;20031;-62
2021/07/30 01:48:07;;;;;;;7.45;6.85;;;;;;;;;;4980541;28;20034;-63
2021/07/30 01:50:33;;;;;;;6.75;6.15;;;;;;;;;;4978969;28;20023;-62
2021/07/30 01:52:58;;;;;;;7.75;6.72;;;;;;;;;;4978539;28;20393;-62
2021/07/30 01:55:26;;;;;;;6.82;6.13;;;;;;;;;;4976338;28;20329;-62
2021/07/30 01:57:51;;;;;;;7.65;6.88;;;;;;;;;;4978968;28;20059;-62
2021/07/30 02:00:16;;;;;;;7.75;6.63;;;;;;;;;;4979224;28;20054;-64
2021/07/30 02:02:42;;;;;;;7.20;5.78;;;;;;;;;;4979505;28;20390;-62
2021/07/30 02:05:08;;;;;;;7.43;6.72;;;;;;;;;;4979490;28;20089;-62
2021/07/30 02:07:37;;;;;;;7.03;6.15;;;;;;;;;;4978563;28;20114;-62
2021/07/30 02:10:03;;;;;;;9.45;7.18;;;;;;;;;;4981327;28;20291;-62
2021/07/30 02:12:29;;;;;;;13.35;6.90;;;;;;;;;;4979955;28;20023;-62
2021/07/30 02:14:54;;;;;;;7.30;6.45;;;;;;;;;;4979869;28;20031;-62
2021/07/30 02:17:19;;;;;;;7.05;6.45;;;;;;;;;;4979516;28;20019;-62
2021/07/30 02:19:44;;;;;;;7.20;6.53;;;;;;;;;;4979640;28;20014;-63
2021/07/30 02:22:09;;;;;;;8.35;6.97;;;;;;;;;;4979700;28;20027;-62
2021/07/30 02:24:35;;;;;;;6.15;5.55;;;;;;;;;;4981446;28;20065;-61
2021/07/30 02:27:00;;;;;;;7.82;7.13;;;;;;;;;;4978690;28;20053;-61
2021/07/30 02:29:26;;;;;;;7.22;6.60;;;;;;;;;;4981228;28;20129;-61
2021/07/30 02:31:51;;;;;;;7.25;6.10;;;;;;;;;;4981827;28;20324;-61
2021/07/30 02:34:16;;;;;;;7.35;6.65;;;;;;;;;;4981465;28;20101;-61
2021/07/30 02:36:42;;;;;;;7.97;6.70;;;;;;;;;;4980882;28;20375;-62
2021/07/30 02:39:08;;;;;;;7.60;6.95;;;;;;;;;;4981399;28;20035;-61
2021/07/30 02:41:33;;;;;;;8.38;7.10;;;;;;;;;;4980094;28;20029;-61
2021/07/30 02:43:58;;;;;;;8.00;7.25;;;;;;;;;;4981355;28;20034;-62
2021/07/30 02:46:24;;;;;;;8.48;6.68;;;;;;;;;;4980789;28;20077;-61
2021/07/30 02:48:49;;;;;;;6.95;6.35;;;;;;;;;;4980642;28;20023;-61
2021/07/30 02:51:15;;;;;;;7.07;6.38;;;;;;;;;;4974878;28;20076;-61
2021/07/30 02:53:40;;;;;;;7.85;7.15;;;;;;;;;;4986266;28;20030;-62
2021/07/30 02:56:06;;;;;;;6.82;6.22;;;;;;;;;;4984954;28;20026;-61
2021/07/30 02:58:31;;;;;;;10.07;6.88;;;;;;;;;;4982587;28;20145;-62
2021/07/30 03:00:58;;;;;;;7.45;6.43;;;;;;;;;;4984170;28;20109;-61
2021/07/30 03:03:23;;;;;;;9.02;7.28;;;;;;;;;;4985323;28;20065;-61
2021/07/30 03:05:48;;;;;;;7.47;6.55;;;;;;;;;;4981869;28;20104;-61
2021/07/30 03:08:14;;;;;;;9.10;7.50;;;;;;;;;;4982238;28;20351;-61
2021/07/30 03:10:39;;;;;;;7.18;6.47;;;;;;;;;;4983714;28;20027;-61
2021/07/30 03:13:04;;;;;;;7.95;6.38;;;;;;;;;;4981073;28;20031;-61
2021/07/30 03:15:30;;;;;;;6.70;6.10;;;;;;;;;;4983282;28;20025;-61
2021/07/30 03:17:55;;;;;;;7.40;6.80;;;;;;;;;;4981821;28;20037;-61
2021/07/30 03:20:20;;;;;;;6.97;6.18;;;;;;;;;;4984413;28;20026;-62
2021/07/30 03:22:45;;;;;;;7.68;7.00;;;;;;;;;;4983648;28;20018;-62
2021/07/30 03:25:11;;;;;;;7.70;7.00;;;;;;;;;;4983329;28;20054;-63
2021/07/30 03:27:36;;;;;;;8.38;6.47;;;;;;;;;;4984451;28;20128;-62
2021/07/30 03:30:01;;;;;;;8.07;7.20;;;;;;;;;;4984049;28;20037;-61
2021/07/30 03:32:27;;;;;;;8.38;6.82;;;;;;;;;;4982429;28;20061;-62
2021/07/30 03:34:52;;;;;;;6.88;6.18;;;;;;;;;;4980992;28;20316;-62
2021/07/30 03:37:17;;;;;;;7.15;6.25;;;;;;;;;;4979310;28;20019;-62
2021/07/30 03:39:42;;;;;;;8.38;6.60;;;;;;;;;;4985452;28;20304;-62
2021/07/30 03:42:08;;;;;;;8.60;6.60;;;;;;;;;;4982142;28;20272;-62
2021/07/30 03:44:33;;;;;;;8.40;6.55;;;;;;;;;;4982180;28;20026;-62
2021/07/30 03:46:58;;;;;;;6.78;6.28;;;;;;;;;;4982609;28;20153;-62
2021/07/30 03:49:24;;;;;;;6.47;5.88;;;;;;;;;;4981597;28;20030;-62
2021/07/30 03:51:49;;;;;;;7.18;6.00;;;;;;;;;;4979853;28;20057;-62
2021/07/30 03:54:14;;;;;;;8.18;6.68;;;;;;;;;;4981100;28;20026;-62
2021/07/30 03:56:41;;;;;;;10.15;6.35;;;;;;;;;;4981489;28;20354;-62
2021/07/30 03:59:06;;;;;;;7.22;6.53;;;;;;;;;;4979427;28;20113;-62
2021/07/30 04:01:32;;;;;;;7.70;6.82;;;;;;;;;;4982894;28;20030;-62
2021/07/30 04:03:57;;;;;;;7.70;6.85;;;;;;;;;;4980645;28;20360;-62
2021/07/30 04:06:22;;;;;;;7.85;6.75;;;;;;;;;;4981470;28;20069;-62
2021/07/30 04:08:47;;;;;;;8.55;6.75;;;;;;;;;;4982869;28;20015;-62
2021/07/30 04:11:13;;;;;;;7.82;7.03;;;;;;;;;;4981150;28;20027;-62
2021/07/30 04:13:38;;;;;;;7.90;6.97;;;;;;;;;;4981802;28;20030;-62
2021/07/30 04:16:04;;;;;;;7.35;6.30;;;;;;;;;;4982240;28;20065;-62
2021/07/30 04:18:29;;;;;;;9.25;7.20;;;;;;;;;;4980876;28;20035;-62
2021/07/30 04:20:54;;;;;;;8.95;7.15;;;;;;;;;;4973112;28;20023;-62
2021/07/30 04:23:20;;;;;;;6.88;6.32;;;;;;;;;;4981302;28;20348;-62
2021/07/30 04:25:45;;;;;;;7.57;6.88;;;;;;;;;;4982342;28;20038;-62
2021/07/30 04:28:10;;;;;;;7.57;6.65;;;;;;;;;;4982338;28;20136;-62
2021/07/30 04:30:36;;;;;;;9.23;7.38;;;;;;;;;;4973371;28;20022;-62
2021/07/30 04:33:01;;;;;;;7.20;6.60;;;;;;;;;;4980592;28;20594;-62
2021/07/30 04:35:26;;;;;;;7.13;6.50;;;;;;;;;;4980507;28;20023;-62
2021/07/30 04:37:54;;;;;;;7.47;6.25;;;;;;;;;;4981346;28;20022;-62
2021/07/30 04:40:19;;;;;;;8.20;6.90;;;;;;;;;;4983304;28;20117;-62
2021/07/30 04:42:45;;;;;;;11.40;7.43;;;;;;;;;;4979535;28;20405;-62
2021/07/30 04:45:10;;;;;;;6.95;6.35;;;;;;;;;;4979184;28;20030;-62
2021/07/30 04:47:35;;;;;;;6.65;5.90;;;;;;;;;;4980518;28;20018;-62
2021/07/30 04:50:01;;;;;;;7.40;6.70;;;;;;;;;;4972169;28;20046;-62
2021/07/30 04:52:26;;;;;;;7.40;6.55;;;;;;;;;;4980275;28;20019;-62
2021/07/30 04:54:51;;;;;;;7.90;6.55;;;;;;;;;;4980417;28;20065;-64
2021/07/30 04:57:16;;;;;;;7.13;6.53;;;;;;;;;;4982784;28;20392;-62
2021/07/30 04:59:42;;;;;;;7.03;6.43;;;;;;;;;;4963140;28;20205;-62
2021/07/30 05:02:09;;;;;;;7.50;6.38;;;;;;;;;;4966252;28;20118;-62
2021/07/30 05:04:35;;;;;;;7.85;7.15;;;;;;;;;;4981676;28;20125;-62
2021/07/30 05:07:00;;;;;;;8.52;7.15;;;;;;;;;;4979301;28;20053;-62
2021/07/30 05:09:25;;;;;;;7.45;6.80;;;;;;;;;;4963193;28;20077;-62
2021/07/30 05:11:50;;;;;;;6.93;6.22;;;;;;;;;;4971911;28;20070;-62
2021/07/30 05:14:16;;;;;;;7.03;6.43;;;;;;;;;;4973338;28;20038;-62
2021/07/30 05:16:41;;;;;;;7.20;6.40;;;;;;;;;;4979495;28;20034;-62
2021/07/30 05:19:06;;;;;;;6.43;5.90;;;;;;;;;;4979179;28;20344;-62
2021/07/30 05:21:31;;;;;;;7.95;7.00;;;;;;;;;;4981265;28;20057;-62
2021/07/30 05:24:00;;;;;;;7.45;6.47;;;;;;;;;;4980344;28;20037;-62
2021/07/30 05:26:25;;;;;;;7.05;6.45;;;;;;;;;;4977044;28;20092;-62
2021/07/30 05:28:50;;;;;;;9.63;6.35;;;;;;;;;;4980472;28;20023;-63
2021/07/30 05:31:16;;;;;;;7.07;6.47;;;;;;;;;;4980506;28;20041;-63
2021/07/30 05:33:42;;;;;;;6.97;6.38;;;;;;;;;;4981206;28;20412;-63
2021/07/30 05:36:07;;;;;;;7.78;6.65;;;;;;;;;;4978673;28;20037;-62
2021/07/30 05:38:32;;;;;;;6.20;5.53;;;;;;;;;;4965606;28;20031;-62
2021/07/30 05:40:58;;;;;;;6.95;6.25;;;;;;;;;;4965280;28;20037;-63
2021/07/30 05:43:23;;;;;;;7.45;6.68;;;;;;;;;;4981171;28;20054;-63
2021/07/30 05:45:48;;;;;;;6.57;5.97;;;;;;;;;;4979406;28;20109;-63
2021/07/30 05:48:13;;;;;;;7.18;6.57;;;;;;;;;;4967730;28;20022;-63
2021/07/30 05:50:39;;;;;;;6.80;6.10;;;;;;;;;;4978771;28;20281;-63
2021/07/30 05:53:04;;;;;;;7.03;6.43;;;;;;;;;;4972347;28;20037;-63
2021/07/30 05:55:29;;;;;;;7.75;6.65;;;;;;;;;;4980268;28;20035;-63
2021/07/30 05:57:58;;;;;;;6.97;6.28;;;;;;;;;;4980864;28;20054;-63
2021/07/30 06:00:24;;;;;;;6.55;5.95;;;;;;;;;;4979638;28;20057;-63
2021/07/30 06:02:50;;;;;;;6.95;6.10;;;;;;;;;;4981602;28;20062;-63
2021/07/30 06:05:15;;;;;;;8.30;7.40;;;;;;;;;;4980204;28;20476;-63
2021/07/30 06:07:40;;;;;;;7.30;6.70;;;;;;;;;;4979737;28;20089;-62
2021/07/30 06:10:06;;;;;;;9.05;6.57;;;;;;;;;;4980348;28;20038;-62
2021/07/30 06:12:31;;;;;;;6.95;6.20;;;;;;;;;;4980040;28;20038;-63
2021/07/30 06:14:56;;;;;;;7.65;6.43;;;;;;;;;;4978745;28;20015;-62
2021/07/30 06:17:21;;;;;;;6.75;6.15;;;;;;;;;;4961589;28;20081;-62
2021/07/30 06:19:47;;;;;;;8.38;6.63;;;;;;;;;;4979688;28;20046;-62
2021/07/30 06:22:12;;;;;;;8.00;6.30;;;;;;;;;;4980124;28;20118;-61
2021/07/30 06:24:38;;;;;;;7.13;6.53;;;;;;;;;;4979698;28;20034;-61
2021/07/30 06:27:03;;;;;;;7.43;6.82;;;;;;;;;;4972708;28;20037;-62
2021/07/30 06:29:28;;;;;;;8.32;6.90;;;;;;;;;;4964948;28;20045;-63
2021/07/30 06:31:54;;;;;;;7.32;6.60;;;;;;;;;;4964519;28;20034;-63
2021/07/30 06:34:19;;;;;;;6.57;5.95;;;;;;;;;;4962712;28;20399;-63
2021/07/30 06:36:44;;;;;;;6.25;5.75;;;;;;;;;;4961289;28;20041;-64
2021/07/30 06:39:09;;;;;;;6.45;5.82;;;;;;;;;;4962368;28;20110;-63
2021/07/30 06:41:35;;;;;;;8.07;6.78;;;;;;;;;;4962057;28;20034;-63
2021/07/30 06:44:01;;;;;;;6.93;5.82;;;;;;;;;;4963494;28;20471;-62
2021/07/30 06:46:26;;;;;;;7.28;6.57;;;;;;;;;;4963915;28;20046;-63
2021/07/30 06:48:51;;;;;;;6.50;5.90;;;;;;;;;;4963565;28;20033;-63
2021/07/30 06:51:16;;;;;;;8.02;7.32;;;;;;;;;;4962111;28;20031;-63
2021/07/30 06:53:42;;;;;;;6.93;6.32;;;;;;;;;;4964805;28;20031;-63
2021/07/30 06:56:10;;;;;;;6.85;6.20;;;;;;;;;;4962717;28;20030;-63
2021/07/30 06:58:36;;;;;;;6.53;5.88;;;;;;;;;;4961507;28;20071;-63
2021/07/30 07:01:04;;;;;;;7.45;6.75;;;;;;;;;;4963398;28;20023;-63
2021/07/30 07:03:29;;;;;;;9.30;6.90;;;;;;;;;;4947137;28;20072;-63
2021/07/30 07:05:54;;;;;;;8.57;5.72;;;;;;;;;;4962910;28;20035;-63
2021/07/30 07:08:20;;;;;;;6.13;5.63;;;;;;;;;;4963956;28;20038;-63
2021/07/30 07:10:45;;;;;;;7.40;6.68;;;;;;;;;;4963118;28;20015;-63
2021/07/30 07:13:10;;;;;;;7.90;7.10;;;;;;;;;;4963737;28;20325;-63
2021/07/30 07:15:35;;;;;;;7.40;6.80;;;;;;;;;;4962262;28;20039;-63
2021/07/30 07:18:01;;;;;;;6.70;6.10;;;;;;;;;;4963054;28;20039;-63
2021/07/30 07:20:26;;;;;;;6.97;6.47;;;;;;;;;;4963592;28;20041;-63
2021/07/30 07:22:51;;;;;;;11.95;7.53;;;;;;;;;;4964976;28;20042;-64
2021/07/30 07:25:16;;;;;;;6.10;5.60;;;;;;;;;;4963073;28;20049;-65
2021/07/30 07:27:42;;;;;;;6.63;6.03;;;;;;;;;;4961526;28;20443;-63
2021/07/30 07:30:07;;;;;;;6.57;6.07;;;;;;;;;;4963083;28;20023;-63
2021/07/30 07:32:32;;;;;;;7.40;5.85;;;;;;;;;;4961773;28;20368;-63
2021/07/30 07:34:58;;;;;;;7.90;6.07;;;;;;;;;;4964169;28;20023;-63
2021/07/30 07:37:23;;;;;;;6.70;6.18;;;;;;;;;;4962730;28;20074;-62
2021/07/30 07:39:48;;;;;;;7.10;6.35;;;;;;;;;;4961309;28;20042;-63
2021/07/30 07:42:14;;;;;;;7.70;6.25;;;;;;;;;;4962611;28;20039;-63
2021/07/30 07:44:39;;;;;;;6.68;6.07;;;;;;;;;;4962067;28;20023;-63
2021/07/30 07:47:04;;;;;;;6.93;6.32;;;;;;;;;;4963029;28;20058;-64
2021/07/30 07:49:29;;;;;;;6.30;5.80;;;;;;;;;;4962325;28;20037;-63
2021/07/30 07:51:55;;;;;;;6.38;5.95;;;;;;;;;;4962654;28;20118;-63
2021/07/30 07:54:20;;;;;;;6.93;6.43;;;;;;;;;;4964419;28;20695;-63
2021/07/30 07:56:45;;;;;;;6.97;6.47;;;;;;;;;;4947597;28;20049;-62
2021/07/30 07:59:11;;;;;;;6.53;5.93;;;;;;;;;;4953208;28;20102;-63
2021/07/30 08:01:36;;;;;;;6.63;6.05;;;;;;;;;;4964481;28;20093;-63
2021/07/30 08:04:02;;;;;;;6.75;6.25;;;;;;;;;;4963039;28;20380;-63
2021/07/30 08:06:27;;;;;;;6.47;5.88;;;;;;;;;;4948152;28;20057;-66
2021/07/30 08:08:52;;;;;;;7.38;6.78;;;;;;;;;;4955157;28;20022;-65
2021/07/30 08:11:18;;;;;;;7.35;6.75;;;;;;;;;;4964450;28;20038;-65
2021/07/30 08:13:44;;;;;;;7.00;6.50;;;;;;;;;;4963827;28;20389;-66
2021/07/30 08:16:09;;;;;;;6.75;6.25;;;;;;;;;;4964814;28;20030;-65
2021/07/30 08:18:34;;;;;;;7.93;7.22;;;;;;;;;;4953486;28;20432;-66
2021/07/30 08:21:00;;;;;;;7.63;6.65;;;;;;;;;;4963156;28;20452;-66
2021/07/30 08:23:25;;;;;;;7.60;6.72;;;;;;;;;;4962090;28;20058;-66
2021/07/30 08:25:50;;;;;;;15.07;6.82;;;;;;;;;;4964081;28;20035;-65
2021/07/30 08:28:16;;;;;;;8.05;6.47;;;;;;;;;;4962808;28;20351;-63
2021/07/30 08:30:42;;;;;;;6.80;6.22;;;;;;;;;;4962817;28;20015;-64
2021/07/30 08:33:07;;;;;;;7.25;6.55;;;;;;;;;;4961459;28;20026;-64
2021/07/30 08:35:34;;;;;;;7.40;6.70;;;;;;;;;;4962197;28;20482;-64
2021/07/30 08:37:59;;;;;;;6.30;5.80;;;;;;;;;;4960670;28;20093;-64
2021/07/30 08:40:25;;;;;;;6.32;5.82;;;;;;;;;;4961841;28;20034;-64
2021/07/30 08:42:51;;;;;;;7.18;5.85;;;;;;;;;;4962126;28;20031;-64
2021/07/30 08:45:16;;;;;;;7.70;7.00;;;;;;;;;;4962186;28;20037;-64
2021/07/30 08:47:43;;;;;;;7.45;6.95;;;;;;;;;;4961295;28;20031;-65
2021/07/30 08:50:08;;;;;;;6.95;6.43;;;;;;;;;;4962851;28;20035;-64
2021/07/30 08:52:39;;;;;;;7.28;6.78;;;;;;;;;;4962217;28;20034;-65
2021/07/30 08:55:05;;;;;;;8.00;6.97;;;;;;;;;;4962667;28;20109;-64
2021/07/30 08:57:30;;;;;;;6.60;6.10;;;;;;;;;;4945136;28;20491;-64
2021/07/30 09:00:05;;;;;;;7.22;6.63;;;;;;;;;;4960840;28;20078;-64
2021/07/30 09:02:30;;;;;;;;;;;;;;;;;;4963156;28;20022;-64
2021/07/30 09:04:55;;;;;;;6.93;6.20;;;;;;;;;;4962100;28;19983;-64
2021/07/30 09:07:20;;;;;;;8.45;6.65;;;;;;;;;;4961160;28;20369;-64
2021/07/30 09:09:53;;;;;;;7.10;6.60;;;;;;;;;;4961916;28;20366;-65
2021/07/30 09:12:19;;;;;;;7.88;7.18;;;;;;;;;;4962568;28;20019;-64
2021/07/30 09:14:45;;;;;;;7.03;6.43;;;;;;;;;;4962225;28;20058;-64
2021/07/30 09:17:10;;;;;;;7.18;6.55;;;;;;;;;;4963304;28;20054;-64
2021/07/30 09:19:55;;;;;;;7.13;6.38;;;;;;;;;;4962065;28;20779;-64
2021/07/30 09:22:20;;;;;;;6.72;6.13;;;;;;;;;;4963410;28;20031;-67
2021/07/30 09:24:46;;;;;;;7.50;6.90;;;;;;;;;;4962537;28;20058;-62
2021/07/30 09:27:11;;;;;;;6.85;6.25;;;;;;;;;;4962473;28;20114;-63
2021/07/30 09:29:37;;;;;;;6.90;6.30;;;;;;;;;;4962477;28;20033;-62
2021/07/30 09:32:07;;;;;;;8.80;6.40;;;;;;;;;;4953231;28;20027;-62
2021/07/30 09:34:37;;;;;;;7.65;7.05;;;;;;;;;;4952469;28;20042;-62
2021/07/30 09:37:07;;;;;;;7.20;6.60;;;;;;;;;;4962082;28;20117;-63
2021/07/30 09:39:32;;;;;;;7.75;6.82;;;;;;;;;;4963399;28;20082;-63
2021/07/30 09:42:04;;;;;;;7.45;6.60;;;;;;;;;;4963037;28;20023;-65
2021/07/30 09:44:30;;;;;;;6.88;6.38;;;;;;;;;;4960683;28;20102;-65
2021/07/30 09:47:24;;;;;;;7.25;6.60;;;;;;;;;;4961390;28;20035;-65
2021/07/30 09:49:59;;;;;;;7.40;6.88;;;;;;;;;;4946246;28;20034;-65
2021/07/30 09:52:26;;;;;;;9.00;7.95;;;;;;;;;;4961495;28;20105;-65
2021/07/30 09:54:52;;;;;;;7.13;6.53;;;;;;;;;;4960503;28;20050;-65
2021/07/30 09:57:19;;;;;;;7.70;6.97;;;;;;;;;;4961037;28;20019;-65
2021/07/30 09:59:44;;;;;;;8.25;7.65;;;;;;;;;;4963050;28;20085;-65
2021/07/30 10:02:11;;;;;;;7.40;6.70;;;;;;;;;;4965051;28;20292;-65
2021/07/30 10:04:38;;;;;;;9.23;6.70;;;;;;;;;;4965027;28;20545;-64
2021/07/30 10:07:04;;;;;;;6.65;6.15;;;;;;;;;;4965102;28;20127;-64
2021/07/30 10:09:30;;;;;;;7.60;7.00;;;;;;;;;;4965262;28;20104;-65
2021/07/30 10:11:56;;;;;;;7.80;7.10;;;;;;;;;;4964495;28;20324;-64
2021/07/30 10:14:25;;;;;;;7.55;6.93;;;;;;;;;;4964400;28;20023;-64
2021/07/30 10:16:59;;;;;;;8.23;7.43;;;;;;;;;;4963090;28;20468;-64
2021/07/30 10:19:24;;;;;;;8.60;7.80;;;;;;;;;;4956071;28;20030;-64
2021/07/30 10:21:50;;;;;;;8.02;7.32;;;;;;;;;;4963645;28;20041;-64
2021/07/30 10:24:15;;;;;;;7.78;7.18;;;;;;;;;;4965604;28;20031;-64
2021/07/30 10:26:41;;;;;;;8.50;7.60;;;;;;;;;;4964591;28;20070;-64
2021/07/30 10:29:07;;;;;;;6.95;6.45;;;;;;;;;;4964543;28;20030;-64
2021/07/30 10:31:49;;;;;;;8.13;7.32;;;;;;;;;;4965592;28;20074;-65
2021/07/30 10:34:15;;;;;;;8.68;7.85;;;;;;;;;;4964858;28;20054;-65
2021/07/30 10:36:40;;;;;;;7.97;7.38;;;;;;;;;;4964696;28;20027;-65
2021/07/30 10:39:16;;;;;;;8.02;7.30;;;;;;;;;;4949756;28;20304;-65
2021/07/30 10:42:01;;;;;;;7.78;7.18;;;;;;;;;;4964071;28;20021;-64
2021/07/30 10:44:26;;;;;;;7.18;6.47;;;;;;;;;;4964931;28;20081;-64
2021/07/30 10:47:11;;;;;;;7.28;6.70;;;;;;;;;;4950158;28;20027;-64
2021/07/30 10:49:38;;;;;;;8.13;7.38;;;;;;;;;;4964555;28;20045;-64
2021/07/30 10:52:22;;;;;;;7.88;7.18;;;;;;;;;;4965348;28;20023;-64
2021/07/30 10:54:48;;;;;;;7.72;7.13;;;;;;;;;;4965181;28;20175;-65
2021/07/30 10:57:33;;;;;;;7.43;6.95;;;;;;;;;;4964289;28;20022;-65
2021/07/30 11:00:04;;;;;;;9.80;7.65;;;;;;;;;;4963195;28;20133;-65
2021/07/30 11:02:49;;;;;;;7.00;6.57;;;;;;;;;;4964189;28;20023;-65
2021/07/30 11:05:15;;;;;;;7.78;7.13;;;;;;;;;;4963497;28;20035;-64
2021/07/30 11:07:40;;;;;;;7.78;7.20;;;;;;;;;;4963275;28;20025;-64
2021/07/30 11:10:16;;;;;;;7.38;6.80;;;;;;;;;;4963449;28;20133;-64
2021/07/30 11:12:41;;;;;;;7.60;6.88;;;;;;;;;;4964575;28;20026;-64
2021/07/30 11:15:07;;;;;;;7.05;6.55;;;;;;;;;;4962625;28;20023;-64
2021/07/30 11:17:34;;;;;;;8.25;7.55;;;;;;;;;;4964366;28;20404;-65
2021/07/30 11:20:01;;;;;;;8.38;6.82;;;;;;;;;;4962241;28;20026;-64
2021/07/30 11:22:27;;;;;;;7.35;6.75;;;;;;;;;;4964647;28;20062;-65
2021/07/30 11:24:52;;;;;;;8.40;7.68;;;;;;;;;;4961340;28;20027;-64
2021/07/30 11:27:19;;;;;;;9.65;8.05;;;;;;;;;;4962351;28;20054;-64
2021/07/30 11:29:47;;;;;;;10.82;8.45;;;;;;;;;;4963506;28;20293;-64
2021/07/30 11:32:14;;;;;;;8.32;7.72;;;;;;;;;;4964680;28;20030;-64
2021/07/30 11:34:41;;;;;;;9.00;8.30;;;;;;;;;;4962042;28;20043;-65
2021/07/30 11:37:07;;;;;;;8.70;7.43;;;;;;;;;;4963004;28;20370;-64
2021/07/30 11:39:34;;;;;;;8.00;7.40;;;;;;;;;;4965174;28;20035;-64
2021/07/30 11:41:59;;;;;;;8.77;7.80;;;;;;;;;;4964865;28;20141;-65
2021/07/30 11:44:25;;;;;;;8.77;8.10;;;;;;;;;;4965272;28;20412;-65
2021/07/30 11:46:59;;;;;;;8.93;8.23;;;;;;;;;;4962701;28;20023;-66
2021/07/30 11:49:32;;;;;;;13.98;7.80;;;;;;;;;;4963691;28;20046;-66
2021/07/30 11:51:58;;;;;;;8.73;7.93;;;;;;;;;;4965211;28;20019;-67
2021/07/30 11:54:24;;;;;;;8.82;7.43;;;;;;;;;;4945635;28;20063;-66
2021/07/30 11:56:50;;;;;;;7.85;7.35;;;;;;;;;;4964689;28;20451;-65
2021/07/30 11:59:15;;;;;;;8.85;8.05;;;;;;;;;;4963025;28;20047;-66
2021/07/30 12:01:40;;;;;;;8.32;7.63;;;;;;;;;;4962593;28;20058;-66
2021/07/30 12:04:15;;;;;;;7.60;7.05;;;;;;;;;;4963706;28;20034;-66
2021/07/30 12:06:46;;;;;;;9.80;7.43;;;;;;;;;;4962585;28;20690;-66
2021/07/30 12:09:13;;;;;;;7.80;7.15;;;;;;;;;;4962820;28;20047;-67
2021/07/30 12:11:42;;;;;;;8.38;7.70;;;;;;;;;;4964131;28;20030;-66
2021/07/30 12:14:08;;;;;;;8.60;7.75;;;;;;;;;;4963501;28;20015;-65
2021/07/30 12:16:34;;;;;;;8.10;7.40;;;;;;;;;;4963146;28;20051;-66
2021/07/30 12:18:59;;;;;;;8.18;7.38;;;;;;;;;;4962777;28;20026;-66
2021/07/30 12:21:24;;;;;;;8.25;7.10;;;;;;;;;;4954426;28;20069;-66
2021/07/30 12:23:50;;;;;;;8.82;7.93;;;;;;;;;;4964126;28;20031;-66
2021/07/30 12:26:28;;;;;;;8.85;8.05;;;;;;;;;;4963002;28;20301;-65
2021/07/30 12:28:53;;;;;;;9.07;8.20;;;;;;;;;;4962475;28;20390;-65
2021/07/30 12:31:18;;;;;;;11.70;8.75;;;;;;;;;;4961778;28;20061;-66
2021/07/30 12:33:43;;;;;;;8.82;8.13;;;;;;;;;;4960850;28;20031;-65
2021/07/30 12:36:10;;;;;;;9.48;8.55;;;;;;;;;;4961313;28;20427;-66
2021/07/30 12:38:57;;;;;;;7.55;6.93;;;;;;;;;;4962153;28;20046;-66
2021/07/30 12:41:25;;;;;;;8.25;7.15;;;;;;;;;;4960783;28;20030;-66
2021/07/30 12:43:51;;;;;;;8.60;8.00;;;;;;;;;;4962131;28;20030;-66
2021/07/30 12:46:36;;;;;;;8.05;7.38;;;;;;;;;;4964568;28;20454;-66
2021/07/30 12:49:02;;;;;;;9.20;8.40;;;;;;;;;;4964090;28;20039;-66
2021/07/30 12:51:27;;;;;;;8.38;7.57;;;;;;;;;;4961324;28;20093;-65
2021/07/30 12:54:07;;;;;;;8.75;8.05;;;;;;;;;;4962153;28;20130;-66
2021/07/30 12:56:50;;;;;;;8.77;8.18;;;;;;;;;;4961129;28;20038;-66
2021/07/30 12:59:16;;;;;;;9.65;8.77;;;;;;;;;;4963997;28;20106;-65
2021/07/30 13:01:41;;;;;;;9.15;8.35;;;;;;;;;;4961181;28;20089;-66
2021/07/30 13:04:08;;;;;;;9.60;8.55;;;;;;;;;;4962673;28;20026;-65
2021/07/30 13:06:34;;;;;;;8.23;7.72;;;;;;;;;;4961563;28;20022;-66
2021/07/30 13:08:59;;;;;;;8.82;8.07;;;;;;;;;;4959627;28;20065;-66
2021/07/30 13:11:25;;;;;;;10.18;9.30;;;;;;;;;;4961274;28;20029;-66
2021/07/30 13:13:50;;;;;;;8.88;8.07;;;;;;;;;;4961901;28;20150;-65
2021/07/30 13:16:15;;;;;;;9.05;8.45;;;;;;;;;;4977111;28;20046;-65
2021/07/30 13:18:41;;;;;;;9.10;7.82;;;;;;;;;;4960931;28;20031;-66
2021/07/30 13:21:06;;;;;;;10.35;8.02;;;;;;;;;;4961085;28;20508;-65
2021/07/30 13:23:31;;;;;;;8.55;7.93;;;;;;;;;;4960206;28;20019;-65
2021/07/30 13:25:57;;;;;;;11.57;10.48;;;;;;;;;;4960057;28;20030;-65
2021/07/30 13:28:23;;;;;;;10.73;8.80;;;;;;;;;;4961044;28;20304;-65
2021/07/30 13:30:48;;;;;;;9.85;8.93;;;;;;;;;;4951782;28;20467;-65
2021/07/30 13:33:15;;;;;;;14.18;8.68;;;;;;;;;;4981666;28;20097;-65
2021/07/30 13:35:40;;;;;;;10.45;8.45;;;;;;;;;;4978334;28;20121;-65
2021/07/30 13:38:06;;;;;;;16.80;11.98;;;;;;;;;;4981025;28;20454;-65
2021/07/30 13:40:32;;;;;;;13.73;10.25;;;;;;;;;;4968184;28;20026;-65
2021/07/30 13:42:59;;;;;;;13.85;10.45;;;;;;;;;;4980833;28;20037;-65
2021/07/30 13:45:24;;;;;;;16.83;12.57;;;;;;;;;;4980632;28;20030;-65
2021/07/30 13:47:49;;;;;;;15.88;12.10;;;;;;;;;;4981280;28;20372;-65
2021/07/30 13:50:15;;;;;;;17.83;11.30;;;;;;;;;;4981993;28;20026;-66
2021/07/30 13:52:40;;;;;;;15.07;11.50;;;;;;;;;;4979470;28;20296;-65
2021/07/30 13:55:06;;;;;;;11.90;10.55;;;;;;;;;;4982468;28;20027;-66
2021/07/30 13:57:34;;;;;;;14.90;10.43;;;;;;;;;;4981840;28;20578;-65
2021/07/30 14:00:00;;;;;;;15.45;10.98;;;;;;;;;;4980002;28;20050;-64
2021/07/30 14:02:25;;;;;;;16.98;13.10;;;;;;;;;;4980751;28;20392;-64
2021/07/30 14:04:51;;;;;;;12.55;10.93;;;;;;;;;;4978194;28;20042;-64
2021/07/30 14:07:16;;;;;;;11.20;10.00;;;;;;;;;;4982382;28;20065;-65
2021/07/30 14:09:41;;;;;;;11.02;9.93;;;;;;;;;;4980516;28;20022;-65
2021/07/30 14:12:07;;;;;;;11.23;10.13;;;;;;;;;;4981470;28;20030;-64
2021/07/30 14:14:32;;;;;;;11.82;10.38;;;;;;;;;;4967646;28;20300;-64
2021/07/30 14:16:58;;;;;;;9.65;8.82;;;;;;;;;;4981897;28;20035;-64
2021/07/30 14:19:23;;;;;;;15.75;10.82;;;;;;;;;;4981424;28;20023;-65
2021/07/30 14:21:49;;;;;;;12.35;10.93;;;;;;;;;;4978926;28;20061;-65
2021/07/30 14:24:14;;;;;;;13.55;10.40;;;;;;;;;;4981594;28;20280;-65
2021/07/30 14:26:39;;;;;;;11.90;10.45;;;;;;;;;;4979107;28;20518;-63
2021/07/30 14:29:04;;;;;;;12.52;11.23;;;;;;;;;;4979266;28;20019;-64
2021/07/30 14:31:30;;;;;;;12.52;10.00;;;;;;;;;;4966910;28;20399;-64
2021/07/30 14:33:55;;;;;;;12.50;10.02;;;;;;;;;;4981235;28;20022;-64
2021/07/30 14:36:20;;;;;;;14.27;12.73;;;;;;;;;;4981402;28;20022;-64